Abrams, Wisconsin
Current Conditions -  °F | °C
As of 4:55 PM on Friday 28 Nov 2014 (Local Time) from KOCQ Reporting Station
Overcast Overcast  
Wind Chill: 22°   Ceiling: 2000
Heat Index: 22°   Visibility: 2.5mi
Dew Point: 22°   Wind: 0mph
Humidity: 99%   Direction: NA
Pressure: 29.98"   Gusts: NA
Location:  44.78°N, 88.06°W
Report Text: KOCQ 282255Z AUTO 00000KT 2 1/2SM BKN020 OVC029 M06/M06 A2998 RMK AO1 P0001 T10561057
Loading
Personal Weather Stations






























Interactive Weather Map New forecast layout! Learn more

10-Day Weather Forecast

Advertisements
Track Severe Weather on mobile